Catron, Missouri
Current Conditions -  °F | °C
As of 2:53 PM on Saturday 25 Oct 2014 (Local Time) from KPOF Reporting Station
Haze Haze  
Wind Chill: 81°   Ceiling: Unl
Heat Index: 82°   Visibility: 6mi
Dew Point: 63°   Wind: 5mph
Humidity: 54%   Direction: 200°SSW
Pressure: 29.99"   Gusts: NA
Location:  36.61°N, 89.7°W
Report Text: KPOF 251953Z AUTO 20004KT 6SM HZ CLR 27/17 A2999 RMK AO2 SLP152 T02720172
Loading
Personal Weather Stations






























Interactive Weather Map
Tropical Storm Tracking
New forecast layout! Learn more

10-Day Weather Forecast

Advertisements
Track Severe Weather on mobile